sensor_id;sensor_type;location;lat;lon;timestamp;pressure;altitude;pressure_sealevel;temperature
69552;BMP280;63774;45.292;11.784;2022-11-12T00:00:05;103594.11;;;21.07
69552;BMP280;63774;45.292;11.784;2022-11-12T00:02:31;103585.75;;;21.07
69552;BMP280;63774;45.292;11.784;2022-11-12T00:04:56;103583.48;;;21.08
69552;BMP280;63774;45.292;11.784;2022-11-12T00:07:22;103586.36;;;21.07
69552;BMP280;63774;45.292;11.784;2022-11-12T00:09:47;103588.73;;;21.08
69552;BMP280;63774;45.292;11.784;2022-11-12T00:12:13;103594.70;;;21.07
69552;BMP280;63774;45.292;11.784;2022-11-12T00:14:38;103589.33;;;21.07
69552;BMP280;63774;45.292;11.784;2022-11-12T00:17:03;103584.28;;;21.07
69552;BMP280;63774;45.292;11.784;2022-11-12T00:19:29;103581.08;;;21.07
69552;BMP280;63774;45.292;11.784;2022-11-12T00:21:54;103583.45;;;21.08
69552;BMP280;63774;45.292;11.784;2022-11-12T00:24:20;103587.40;;;21.08
69552;BMP280;63774;45.292;11.784;2022-11-12T00:26:45;103590.56;;;21.10
69552;BMP280;63774;45.292;11.784;2022-11-12T00:29:11;103595.64;;;21.10
69552;BMP280;63774;45.292;11.784;2022-11-12T00:31:36;103600.41;;;21.11
69552;BMP280;63774;45.292;11.784;2022-11-12T00:34:02;103598.23;;;21.13
69552;BMP280;63774;45.292;11.784;2022-11-12T00:36:27;103597.83;;;21.12
69552;BMP280;63774;45.292;11.784;2022-11-12T00:38:53;103597.58;;;21.11
69552;BMP280;63774;45.292;11.784;2022-11-12T00:41:18;103604.58;;;21.13
69552;BMP280;63774;45.292;11.784;2022-11-12T00:43:43;103604.23;;;21.12
69552;BMP280;63774;45.292;11.784;2022-11-12T00:46:09;103601.34;;;21.11
69552;BMP280;63774;45.292;11.784;2022-11-12T00:48:34;103598.68;;;21.10
69552;BMP280;63774;45.292;11.784;2022-11-12T00:51:04;103599.73;;;21.10
69552;BMP280;63774;45.292;11.784;2022-11-12T00:53:30;103600.89;;;21.08
69552;BMP280;63774;45.292;11.784;2022-11-12T00:56:04;103599.63;;;21.08
69552;BMP280;63774;45.292;11.784;2022-11-12T00:58:32;103594.86;;;21.07
69552;BMP280;63774;45.292;11.784;2022-11-12T01:01:06;103590.34;;;21.06
69552;BMP280;63774;45.292;11.784;2022-11-12T01:03:32;103590.42;;;21.06
69552;BMP280;63774;45.292;11.784;2022-11-12T01:06:03;103588.67;;;21.04
69552;BMP280;63774;45.292;11.784;2022-11-12T01:08:29;103586.71;;;21.02
69552;BMP280;63774;45.292;11.784;2022-11-12T01:10:55;103585.48;;;21.03
69552;BMP280;63774;45.292;11.784;2022-11-12T01:13:20;103584.06;;;21.04
69552;BMP280;63774;45.292;11.784;2022-11-12T01:15:46;103578.58;;;21.03
69552;BMP280;63774;45.292;11.784;2022-11-12T01:18:11;103580.05;;;21.03
69552;BMP280;63774;45.292;11.784;2022-11-12T01:20:38;103579.47;;;21.03
69552;BMP280;63774;45.292;11.784;2022-11-12T01:23:04;103578.93;;;21.03
69552;BMP280;63774;45.292;11.784;2022-11-12T01:25:30;103569.67;;;20.99
69552;BMP280;63774;45.292;11.784;2022-11-12T01:27:55;103568.80;;;21.02
69552;BMP280;63774;45.292;11.784;2022-11-12T01:30:22;103569.48;;;21.01
69552;BMP280;63774;45.292;11.784;2022-11-12T01:32:47;103567.66;;;21.02
69552;BMP280;63774;45.292;11.784;2022-11-12T01:35:13;103566.38;;;21.01
69552;BMP280;63774;45.292;11.784;2022-11-12T01:37:38;103563.14;;;21.01
69552;BMP280;63774;45.292;11.784;2022-11-12T01:40:04;103557.21;;;20.99
69552;BMP280;63774;45.292;11.784;2022-11-12T01:42:31;103550.65;;;20.98
69552;BMP280;63774;45.292;11.784;2022-11-12T01:44:57;103552.23;;;20.98
69552;BMP280;63774;45.292;11.784;2022-11-12T01:47:28;103557.03;;;20.98
69552;BMP280;63774;45.292;11.784;2022-11-12T01:50:13;103557.66;;;20.98
69552;BMP280;63774;45.292;11.784;2022-11-12T01:52:44;103557.62;;;20.96
69552;BMP280;63774;45.292;11.784;2022-11-12T01:55:13;103553.07;;;20.95
69552;BMP280;63774;45.292;11.784;2022-11-12T01:57:44;103550.51;;;20.95
69552;BMP280;63774;45.292;11.784;2022-11-12T02:00:14;103544.72;;;20.96
69552;BMP280;63774;45.292;11.784;2022-11-12T02:02:43;103541.69;;;20.96
69552;BMP280;63774;45.292;11.784;2022-11-12T02:05:12;103543.83;;;20.97
69552;BMP280;63774;45.292;11.784;2022-11-12T02:07:40;103544.79;;;21.00
69552;BMP280;63774;45.292;11.784;2022-11-12T02:10:08;103540.27;;;20.99
69552;BMP280;63774;45.292;11.784;2022-11-12T02:12:35;103536.88;;;21.00
69552;BMP280;63774;45.292;11.784;2022-11-12T02:15:19;103534.74;;;20.99
69552;BMP280;63774;45.292;11.784;2022-11-12T02:17:45;103534.77;;;20.99
69552;BMP280;63774;45.292;11.784;2022-11-12T02:20:12;103539.80;;;20.98
69552;BMP280;63774;45.292;11.784;2022-11-12T02:22:38;103537.13;;;20.98
69552;BMP280;63774;45.292;11.784;2022-11-12T02:25:04;103537.54;;;20.97
69552;BMP280;63774;45.292;11.784;2022-11-12T02:27:29;103541.63;;;20.97
69552;BMP280;63774;45.292;11.784;2022-11-12T02:29:55;103535.96;;;20.97
69552;BMP280;63774;45.292;11.784;2022-11-12T02:32:20;103536.89;;;20.96
69552;BMP280;63774;45.292;11.784;2022-11-12T02:34:46;103533.06;;;20.96
69552;BMP280;63774;45.292;11.784;2022-11-12T02:37:11;103529.98;;;20.96
69552;BMP280;63774;45.292;11.784;2022-11-12T02:39:37;103527.42;;;20.95
69552;BMP280;63774;45.292;11.784;2022-11-12T02:42:02;103528.34;;;20.95
69552;BMP280;63774;45.292;11.784;2022-11-12T02:44:28;103529.92;;;20.95
69552;BMP280;63774;45.292;11.784;2022-11-12T02:46:54;103530.43;;;20.93
69552;BMP280;63774;45.292;11.784;2022-11-12T02:49:20;103532.02;;;20.94
69552;BMP280;63774;45.292;11.784;2022-11-12T02:51:45;103524.85;;;20.94
69552;BMP280;63774;45.292;11.784;2022-11-12T02:54:11;103520.33;;;20.94
69552;BMP280;63774;45.292;11.784;2022-11-12T02:56:36;103522.29;;;20.95
69552;BMP280;63774;45.292;11.784;2022-11-12T02:59:02;103522.84;;;20.95
69552;BMP280;63774;45.292;11.784;2022-11-12T03:01:27;103521.16;;;20.92
69552;BMP280;63774;45.292;11.784;2022-11-12T03:03:53;103518.35;;;20.94
69552;BMP280;63774;45.292;11.784;2022-11-12T03:06:18;103517.92;;;20.95
69552;BMP280;63774;45.292;11.784;2022-11-12T03:08:44;103517.89;;;20.94
69552;BMP280;63774;45.292;11.784;2022-11-12T03:11:11;103519.37;;;20.94
69552;BMP280;63774;45.292;11.784;2022-11-12T03:13:39;103513.58;;;20.92
69552;BMP280;63774;45.292;11.784;2022-11-12T03:16:04;103508.48;;;20.92
69552;BMP280;63774;45.292;11.784;2022-11-12T03:18:30;103509.34;;;20.94
69552;BMP280;63774;45.292;11.784;2022-11-12T03:20:55;103503.27;;;20.92
69552;BMP280;63774;45.292;11.784;2022-11-12T03:23:21;103501.45;;;20.92
69552;BMP280;63774;45.292;11.784;2022-11-12T03:25:47;103498.55;;;20.92
69552;BMP280;63774;45.292;11.784;2022-11-12T03:28:14;103498.27;;;20.94
69552;BMP280;63774;45.292;11.784;2022-11-12T03:30:41;103491.42;;;20.93
69552;BMP280;63774;45.292;11.784;2022-11-12T03:33:10;103485.77;;;20.91
69552;BMP280;63774;45.292;11.784;2022-11-12T03:35:36;103484.25;;;20.92
69552;BMP280;63774;45.292;11.784;2022-11-12T03:38:03;103488.98;;;20.92
69552;BMP280;63774;45.292;11.784;2022-11-12T03:40:30;103489.29;;;20.92
69552;BMP280;63774;45.292;11.784;2022-11-12T03:42:56;103490.35;;;20.93
69552;BMP280;63774;45.292;11.784;2022-11-12T03:45:24;103493.88;;;20.92
69552;BMP280;63774;45.292;11.784;2022-11-12T03:47:52;103493.45;;;20.91
69552;BMP280;63774;45.292;11.784;2022-11-12T03:50:19;103493.41;;;20.92
69552;BMP280;63774;45.292;11.784;2022-11-12T03:52:47;103488.77;;;20.91
69552;BMP280;63774;45.292;11.784;2022-11-12T03:55:14;103488.04;;;20.92
69552;BMP280;63774;45.292;11.784;2022-11-12T03:57:40;103485.48;;;20.90
69552;BMP280;63774;45.292;11.784;2022-11-12T04:00:06;103483.53;;;20.90
69552;BMP280;63774;45.292;11.784;2022-11-12T04:02:33;103482.30;;;20.89
69552;BMP280;63774;45.292;11.784;2022-11-12T04:04:59;103485.09;;;20.90
69552;BMP280;63774;45.292;11.784;2022-11-12T04:07:43;103479.27;;;20.92
69552;BMP280;63774;45.292;11.784;2022-11-12T04:10:27;103476.15;;;20.92
69552;BMP280;63774;45.292;11.784;2022-11-12T04:12:54;103479.02;;;20.92
69552;BMP280;63774;45.292;11.784;2022-11-12T04:15:38;103475.03;;;20.92
69552;BMP280;63774;45.292;11.784;2022-11-12T04:18:04;103474.61;;;20.93
69552;BMP280;63774;45.292;11.784;2022-11-12T04:20:48;103467.98;;;20.92
69552;BMP280;63774;45.292;11.784;2022-11-12T04:23:33;103456.73;;;20.93
69552;BMP280;63774;45.292;11.784;2022-11-12T04:25:58;103445.39;;;20.91
69552;BMP280;63774;45.292;11.784;2022-11-12T04:28:42;103446.23;;;20.92
69552;BMP280;63774;45.292;11.784;2022-11-12T04:31:28;103447.42;;;20.91
69552;BMP280;63774;45.292;11.784;2022-11-12T04:33:53;103441.16;;;20.91
69552;BMP280;63774;45.292;11.784;2022-11-12T04:36:19;103435.83;;;20.89
69552;BMP280;63774;45.292;11.784;2022-11-12T04:38:44;103439.73;;;20.90
69552;BMP280;63774;45.292;11.784;2022-11-12T04:41:10;103443.30;;;20.89
69552;BMP280;63774;45.292;11.784;2022-11-12T04:43:54;103439.45;;;20.89
69552;BMP280;63774;45.292;11.784;2022-11-12T04:46:38;103429.66;;;20.88
69552;BMP280;63774;45.292;11.784;2022-11-12T04:49:03;103429.36;;;20.87
69552;BMP280;63774;45.292;11.784;2022-11-12T04:51:29;103435.77;;;20.87
69552;BMP280;63774;45.292;11.784;2022-11-12T04:54:13;103433.58;;;20.89
69552;BMP280;63774;45.292;11.784;2022-11-12T04:56:38;103440.41;;;20.89
69552;BMP280;63774;45.292;11.784;2022-11-12T04:59:04;103440.21;;;20.88
69552;BMP280;63774;45.292;11.784;2022-11-12T05:01:29;103438.88;;;20.88
69552;BMP280;63774;45.292;11.784;2022-11-12T05:03:54;103433.58;;;20.88
69552;BMP280;63774;45.292;11.784;2022-11-12T05:06:20;103425.30;;;20.88
69552;BMP280;63774;45.292;11.784;2022-11-12T05:09:04;103422.17;;;20.89
69552;BMP280;63774;45.292;11.784;2022-11-12T05:11:29;103420.41;;;20.87
69552;BMP280;63774;45.292;11.784;2022-11-12T05:13:55;103422.19;;;20.87
69552;BMP280;63774;45.292;11.784;2022-11-12T05:16:20;103424.01;;;20.86
69552;BMP280;63774;45.292;11.784;2022-11-12T05:18:45;103419.12;;;20.87
69552;BMP280;63774;45.292;11.784;2022-11-12T05:21:11;103412.80;;;20.86
69552;BMP280;63774;45.292;11.784;2022-11-12T05:23:55;103398.86;;;20.89
69552;BMP280;63774;45.292;11.784;2022-11-12T05:26:20;103392.70;;;20.86
69552;BMP280;63774;45.292;11.784;2022-11-12T05:28:46;103395.33;;;20.87
69552;BMP280;63774;45.292;11.784;2022-11-12T05:31:11;103406.09;;;20.88
69552;BMP280;63774;45.292;11.784;2022-11-12T05:33:37;103413.07;;;20.88
69552;BMP280;63774;45.292;11.784;2022-11-12T05:36:02;103408.92;;;20.88
69552;BMP280;63774;45.292;11.784;2022-11-12T05:38:28;103399.34;;;20.87
69552;BMP280;63774;45.292;11.784;2022-11-12T05:40:53;103395.12;;;20.86
69552;BMP280;63774;45.292;11.784;2022-11-12T05:43:19;103393.90;;;20.87
69552;BMP280;63774;45.292;11.784;2022-11-12T05:45:44;103393.45;;;20.87
69552;BMP280;63774;45.292;11.784;2022-11-12T05:48:09;103387.36;;;20.86
69552;BMP280;63774;45.292;11.784;2022-11-12T05:50:35;103382.05;;;20.86
69552;BMP280;63774;45.292;11.784;2022-11-12T05:53:00;103380.22;;;20.86
69552;BMP280;63774;45.292;11.784;2022-11-12T05:55:26;103381.58;;;20.86
69552;BMP280;63774;45.292;11.784;2022-11-12T05:57:51;103382.69;;;20.87
69552;BMP280;63774;45.292;11.784;2022-11-12T06:00:17;103378.81;;;20.86
69552;BMP280;63774;45.292;11.784;2022-11-12T06:02:42;103370.81;;;20.86
69552;BMP280;63774;45.292;11.784;2022-11-12T06:05:08;103372.05;;;20.87
69552;BMP280;63774;45.292;11.784;2022-11-12T06:07:34;103379.19;;;20.88
69552;BMP280;63774;45.292;11.784;2022-11-12T06:09:59;103383.29;;;20.87
69552;BMP280;63774;45.292;11.784;2022-11-12T06:12:24;103389.30;;;20.87
69552;BMP280;63774;45.292;11.784;2022-11-12T06:14:50;103394.42;;;20.86
69552;BMP280;63774;45.292;11.784;2022-11-12T06:17:15;103387.95;;;20.86
69552;BMP280;63774;45.292;11.784;2022-11-12T06:19:41;103382.00;;;20.86
69552;BMP280;63774;45.292;11.784;2022-11-12T06:22:06;103384.53;;;20.86
69552;BMP280;63774;45.292;11.784;2022-11-12T06:24:32;103390.02;;;20.86
69552;BMP280;63774;45.292;11.784;2022-11-12T06:26:57;103390.30;;;20.85
69552;BMP280;63774;45.292;11.784;2022-11-12T06:29:22;103390.59;;;20.86
69552;BMP280;63774;45.292;11.784;2022-11-12T06:31:48;103388.33;;;20.86
69552;BMP280;63774;45.292;11.784;2022-11-12T06:34:13;103392.25;;;20.86
69552;BMP280;63774;45.292;11.784;2022-11-12T06:36:39;103391.01;;;20.87
69552;BMP280;63774;45.292;11.784;2022-11-12T06:39:04;103389.80;;;20.86
69552;BMP280;63774;45.292;11.784;2022-11-12T06:41:30;103390.81;;;20.87
69552;BMP280;63774;45.292;11.784;2022-11-12T06:43:55;103388.73;;;20.84
69552;BMP280;63774;45.292;11.784;2022-11-12T06:46:21;103386.16;;;20.86
69552;BMP280;63774;45.292;11.784;2022-11-12T06:48:46;103388.79;;;20.86
69552;BMP280;63774;45.292;11.784;2022-11-12T06:51:17;103393.05;;;20.85
69552;BMP280;63774;45.292;11.784;2022-11-12T06:53:43;103394.67;;;20.85
69552;BMP280;63774;45.292;11.784;2022-11-12T06:56:11;103399.38;;;20.87
69552;BMP280;63774;45.292;11.784;2022-11-12T06:58:37;103397.96;;;20.86
69552;BMP280;63774;45.292;11.784;2022-11-12T07:01:13;103399.63;;;20.85
69552;BMP280;63774;45.292;11.784;2022-11-12T07:03:40;103396.47;;;20.86
69552;BMP280;63774;45.292;11.784;2022-11-12T07:06:13;103395.52;;;20.87
69552;BMP280;63774;45.292;11.784;2022-11-12T07:08:40;103390.36;;;20.87
69552;BMP280;63774;45.292;11.784;2022-11-12T07:11:06;103386.02;;;20.86
69552;BMP280;63774;45.292;11.784;2022-11-12T07:13:34;103379.13;;;20.86
69552;BMP280;63774;45.292;11.784;2022-11-12T07:16:00;103375.80;;;20.85
69552;BMP280;63774;45.292;11.784;2022-11-12T07:18:27;103378.04;;;20.87
69552;BMP280;63774;45.292;11.784;2022-11-12T07:20:57;103382.61;;;20.87
69552;BMP280;63774;45.292;11.784;2022-11-12T07:23:22;103392.81;;;20.88
69552;BMP280;63774;45.292;11.784;2022-11-12T07:26:01;103393.66;;;20.86
69552;BMP280;63774;45.292;11.784;2022-11-12T07:28:28;103393.24;;;20.86
69552;BMP280;63774;45.292;11.784;2022-11-12T07:31:04;103390.45;;;20.85
69552;BMP280;63774;45.292;11.784;2022-11-12T07:33:30;103386.30;;;20.85
69552;BMP280;63774;45.292;11.784;2022-11-12T07:36:00;103383.61;;;20.87
69552;BMP280;63774;45.292;11.784;2022-11-12T07:38:27;103381.55;;;20.87
69552;BMP280;63774;45.292;11.784;2022-11-12T07:41:07;103380.44;;;20.87
69552;BMP280;63774;45.292;11.784;2022-11-12T07:43:35;103371.63;;;20.86
69552;BMP280;63774;45.292;11.784;2022-11-12T07:46:26;103369.83;;;20.85
69552;BMP280;63774;45.292;11.784;2022-11-12T07:48:52;103375.59;;;20.87
69552;BMP280;63774;45.292;11.784;2022-11-12T07:51:23;103372.02;;;20.86
69552;BMP280;63774;45.292;11.784;2022-11-12T07:53:50;103373.49;;;20.87
69552;BMP280;63774;45.292;11.784;2022-11-12T07:56:19;103371.30;;;20.85
69552;BMP280;63774;45.292;11.784;2022-11-12T07:58:45;103372.35;;;20.85
69552;BMP280;63774;45.292;11.784;2022-11-12T08:03:59;103369.75;;;20.87
69552;BMP280;63774;45.292;11.784;2022-11-12T08:06:26;103364.05;;;20.85
69552;BMP280;63774;45.292;11.784;2022-11-12T08:08:52;103373.19;;;20.85
69552;BMP280;63774;45.292;11.784;2022-11-12T08:11:19;103379.30;;;20.85
69552;BMP280;63774;45.292;11.784;2022-11-12T08:13:44;103372.60;;;20.86
69552;BMP280;63774;45.292;11.784;2022-11-12T08:16:10;103367.77;;;20.86
69552;BMP280;63774;45.292;11.784;2022-11-12T08:18:35;103369.46;;;20.89
69552;BMP280;63774;45.292;11.784;2022-11-12T08:21:03;103369.05;;;20.89
69552;BMP280;63774;45.292;11.784;2022-11-12T08:23:29;103371.68;;;20.88
69552;BMP280;63774;45.292;11.784;2022-11-12T08:26:04;103374.27;;;20.90
69552;BMP280;63774;45.292;11.784;2022-11-12T08:28:31;103368.36;;;20.90
69552;BMP280;63774;45.292;11.784;2022-11-12T08:31:03;103361.40;;;20.89
69552;BMP280;63774;45.292;11.784;2022-11-12T08:33:29;103365.61;;;20.89
69552;BMP280;63774;45.292;11.784;2022-11-12T08:35:54;103365.42;;;20.88
69552;BMP280;63774;45.292;11.784;2022-11-12T08:38:20;103360.95;;;20.89
69552;BMP280;63774;45.292;11.784;2022-11-12T08:40:45;103358.81;;;20.88
69552;BMP280;63774;45.292;11.784;2022-11-12T08:43:11;103352.77;;;20.87
69552;BMP280;63774;45.292;11.784;2022-11-12T08:45:39;103355.17;;;20.88
69552;BMP280;63774;45.292;11.784;2022-11-12T08:48:07;103353.64;;;20.87
69552;BMP280;63774;45.292;11.784;2022-11-12T08:50:32;103347.61;;;20.87
69552;BMP280;63774;45.292;11.784;2022-11-12T08:53:04;103343.50;;;20.85
69552;BMP280;63774;45.292;11.784;2022-11-12T08:55:31;103340.32;;;20.84
69552;BMP280;63774;45.292;11.784;2022-11-12T08:57:58;103342.03;;;20.84
69552;BMP280;63774;45.292;11.784;2022-11-12T09:00:30;103350.08;;;20.84
69552;BMP280;63774;45.292;11.784;2022-11-12T09:02:59;103357.35;;;20.86
69552;BMP280;63774;45.292;11.784;2022-11-12T09:05:25;103357.42;;;20.87
69552;BMP280;63774;45.292;11.784;2022-11-12T09:07:58;103356.77;;;20.87
69552;BMP280;63774;45.292;11.784;2022-11-12T09:10:24;103357.51;;;20.87
69552;BMP280;63774;45.292;11.784;2022-11-12T09:12:50;103359.29;;;20.87
69552;BMP280;63774;45.292;11.784;2022-11-12T09:15:17;103357.52;;;20.87
69552;BMP280;63774;45.292;11.784;2022-11-12T09:17:43;103349.61;;;20.85
69552;BMP280;63774;45.292;11.784;2022-11-12T09:20:09;103346.19;;;20.86
69552;BMP280;63774;45.292;11.784;2022-11-12T09:22:34;103348.21;;;20.86
69552;BMP280;63774;45.292;11.784;2022-11-12T09:25:00;103347.95;;;20.85
69552;BMP280;63774;45.292;11.784;2022-11-12T09:27:26;103345.60;;;20.85
69552;BMP280;63774;45.292;11.784;2022-11-12T09:29:52;103346.03;;;20.85
69552;BMP280;63774;45.292;11.784;2022-11-12T09:32:17;103343.74;;;20.86
69552;BMP280;63774;45.292;11.784;2022-11-12T09:34:42;103340.98;;;20.86
69552;BMP280;63774;45.292;11.784;2022-11-12T09:37:08;103341.13;;;20.86
69552;BMP280;63774;45.292;11.784;2022-11-12T09:39:33;103347.50;;;20.85
69552;BMP280;63774;45.292;11.784;2022-11-12T09:41:59;103352.96;;;20.84
69552;BMP280;63774;45.292;11.784;2022-11-12T09:44:31;103349.17;;;20.84
69552;BMP280;63774;45.292;11.784;2022-11-12T09:47:05;103338.92;;;20.84
69552;BMP280;63774;45.292;11.784;2022-11-12T09:49:46;103336.87;;;20.84
69552;BMP280;63774;45.292;11.784;2022-11-12T09:52:25;103336.31;;;20.83
69552;BMP280;63774;45.292;11.784;2022-11-12T09:55:16;103334.39;;;20.84
69552;BMP280;63774;45.292;11.784;2022-11-12T09:57:43;103330.73;;;20.84
69552;BMP280;63774;45.292;11.784;2022-11-12T10:00:16;103334.48;;;20.83
69552;BMP280;63774;45.292;11.784;2022-11-12T10:02:52;103337.61;;;20.83
69552;BMP280;63774;45.292;11.784;2022-11-12T10:05:37;103332.91;;;20.83
69552;BMP280;63774;45.292;11.784;2022-11-12T10:08:22;103323.54;;;20.83
69552;BMP280;63774;45.292;11.784;2022-11-12T10:14:03;103319.46;;;20.82
69552;BMP280;63774;45.292;11.784;2022-11-12T10:24:48;103298.77;;;20.81
69552;BMP280;63774;45.292;11.784;2022-11-12T10:27:18;103293.89;;;20.81
69552;BMP280;63774;45.292;11.784;2022-11-12T10:29:56;103289.39;;;20.81
69552;BMP280;63774;45.292;11.784;2022-11-12T10:32:24;103286.55;;;20.82
69552;BMP280;63774;45.292;11.784;2022-11-12T10:34:49;103286.46;;;20.81
69552;BMP280;63774;45.292;11.784;2022-11-12T10:37:26;103281.85;;;20.80
69552;BMP280;63774;45.292;11.784;2022-11-12T10:39:52;103283.96;;;20.82
69552;BMP280;63774;45.292;11.784;2022-11-12T10:42:19;103281.40;;;20.81
69552;BMP280;63774;45.292;11.784;2022-11-12T10:44:45;103280.29;;;20.81
69552;BMP280;63774;45.292;11.784;2022-11-12T10:49:40;103283.86;;;20.81
69552;BMP280;63774;45.292;11.784;2022-11-12T10:52:20;103289.14;;;20.82
69552;BMP280;63774;45.292;11.784;2022-11-12T10:54:45;103292.30;;;20.84
69552;BMP280;63774;45.292;11.784;2022-11-12T10:57:24;103290.85;;;20.83
69552;BMP280;63774;45.292;11.784;2022-11-12T11:00:06;103289.55;;;20.84
69552;BMP280;63774;45.292;11.784;2022-11-12T11:02:32;103285.13;;;20.85
69552;BMP280;63774;45.292;11.784;2022-11-12T11:04:57;103275.83;;;20.84
69552;BMP280;63774;45.292;11.784;2022-11-12T11:07:24;103269.53;;;20.83
69552;BMP280;63774;45.292;11.784;2022-11-12T11:09:51;103268.67;;;20.82
69552;BMP280;63774;45.292;11.784;2022-11-12T11:17:35;103271.79;;;20.74
69552;BMP280;63774;45.292;11.784;2022-11-12T11:20:01;103272.10;;;20.73
69552;BMP280;63774;45.292;11.784;2022-11-12T11:23:03;103266.78;;;20.71
69552;BMP280;63774;45.292;11.784;2022-11-12T11:25:32;103263.66;;;20.69
69552;BMP280;63774;45.292;11.784;2022-11-12T11:28:15;103262.44;;;20.68
69552;BMP280;63774;45.292;11.784;2022-11-12T11:31:09;103258.30;;;20.67
69552;BMP280;63774;45.292;11.784;2022-11-12T11:33:56;103259.70;;;20.66
69552;BMP280;63774;45.292;11.784;2022-11-12T11:43:00;103262.95;;;20.68
69552;BMP280;63774;45.292;11.784;2022-11-12T11:45:47;103261.45;;;20.70
69552;BMP280;63774;45.292;11.784;2022-11-12T11:53:46;103245.30;;;20.74
69552;BMP280;63774;45.292;11.784;2022-11-12T11:56:28;103243.25;;;20.74
69552;BMP280;63774;45.292;11.784;2022-11-12T12:07:20;103241.39;;;20.75
69552;BMP280;63774;45.292;11.784;2022-11-12T12:12:22;103244.60;;;20.76
69552;BMP280;63774;45.292;11.784;2022-11-12T12:20:20;103237.80;;;20.76
69552;BMP280;63774;45.292;11.784;2022-11-12T12:22:55;103232.09;;;20.74
69552;BMP280;63774;45.292;11.784;2022-11-12T12:25:23;103224.69;;;20.70
69552;BMP280;63774;45.292;11.784;2022-11-12T12:27:59;103229.06;;;20.71
69552;BMP280;63774;45.292;11.784;2022-11-12T12:30:48;103227.33;;;20.72
69552;BMP280;63774;45.292;11.784;2022-11-12T12:35:57;103219.36;;;20.73
69552;BMP280;63774;45.292;11.784;2022-11-12T12:38:31;103219.41;;;20.73
69552;BMP280;63774;45.292;11.784;2022-11-12T12:43:43;103214.05;;;20.75
69552;BMP280;63774;45.292;11.784;2022-11-12T12:46:12;103208.34;;;20.76
69552;BMP280;63774;45.292;11.784;2022-11-12T12:48:43;103208.41;;;20.73
69552;BMP280;63774;45.292;11.784;2022-11-12T12:51:10;103211.91;;;20.71
69552;BMP280;63774;45.292;11.784;2022-11-12T12:53:36;103208.59;;;20.70
69552;BMP280;63774;45.292;11.784;2022-11-12T12:58:48;103205.57;;;20.64
69552;BMP280;63774;45.292;11.784;2022-11-12T13:04:02;103186.95;;;20.61
69552;BMP280;63774;45.292;11.784;2022-11-12T13:06:50;103181.98;;;20.59
69552;BMP280;63774;45.292;11.784;2022-11-12T13:40:55;103178.15;;;20.76
69552;BMP280;63774;45.292;11.784;2022-11-12T13:43:41;103174.90;;;20.75
69552;BMP280;63774;45.292;11.784;2022-11-12T13:53:40;103177.80;;;20.78
69552;BMP280;63774;45.292;11.784;2022-11-12T13:56:09;103182.41;;;20.79
69552;BMP280;63774;45.292;11.784;2022-11-12T13:58:36;103181.77;;;20.76
69552;BMP280;63774;45.292;11.784;2022-11-12T14:01:05;103186.08;;;20.77
69552;BMP280;63774;45.292;11.784;2022-11-12T14:03:41;103190.66;;;20.79
69552;BMP280;63774;45.292;11.784;2022-11-12T14:08:58;103192.61;;;20.80
69552;BMP280;63774;45.292;11.784;2022-11-12T14:22:08;103178.10;;;20.80
69552;BMP280;63774;45.292;11.784;2022-11-12T14:24:35;103173.63;;;20.80
69552;BMP280;63774;45.292;11.784;2022-11-12T14:27:00;103168.23;;;20.80
69552;BMP280;63774;45.292;11.784;2022-11-12T14:29:25;103159.51;;;20.79
69552;BMP280;63774;45.292;11.784;2022-11-12T14:32:01;103162.48;;;20.80
69552;BMP280;63774;45.292;11.784;2022-11-12T14:34:32;103164.79;;;20.79
69552;BMP280;63774;45.292;11.784;2022-11-12T14:36:59;103162.29;;;20.79
69552;BMP280;63774;45.292;11.784;2022-11-12T14:39:26;103148.13;;;20.77
69552;BMP280;63774;45.292;11.784;2022-11-12T14:41:54;103145.15;;;20.79
69552;BMP280;63774;45.292;11.784;2022-11-12T14:44:23;103144.73;;;20.78
69552;BMP280;63774;45.292;11.784;2022-11-12T14:46:54;103143.13;;;20.78
69552;BMP280;63774;45.292;11.784;2022-11-12T14:49:39;103146.35;;;20.77
69552;BMP280;63774;45.292;11.784;2022-11-12T14:52:11;103150.45;;;20.79
69552;BMP280;63774;45.292;11.784;2022-11-12T14:54:43;103155.29;;;20.79
69552;BMP280;63774;45.292;11.784;2022-11-12T14:57:18;103159.81;;;20.78
69552;BMP280;63774;45.292;11.784;2022-11-12T14:59:44;103160.70;;;20.76
69552;BMP280;63774;45.292;11.784;2022-11-12T15:02:15;103161.30;;;20.76
69552;BMP280;63774;45.292;11.784;2022-11-12T15:05:10;103159.84;;;20.77
69552;BMP280;63774;45.292;11.784;2022-11-12T15:10:47;103154.13;;;20.78
69552;BMP280;63774;45.292;11.784;2022-11-12T15:16:09;103144.35;;;20.80
69552;BMP280;63774;45.292;11.784;2022-11-12T15:18:37;103145.41;;;20.82
69552;BMP280;63774;45.292;11.784;2022-11-12T15:21:17;103140.73;;;20.81
69552;BMP280;63774;45.292;11.784;2022-11-12T15:23:52;103134.77;;;20.83
69552;BMP280;63774;45.292;11.784;2022-11-12T15:26:41;103125.09;;;20.83
69552;BMP280;63774;45.292;11.784;2022-11-12T15:31:48;103119.12;;;20.82
69552;BMP280;63774;45.292;11.784;2022-11-12T15:37:08;103107.59;;;20.80
69552;BMP280;63774;45.292;11.784;2022-11-12T15:39:41;103102.26;;;20.81
69552;BMP280;63774;45.292;11.784;2022-11-12T15:44:46;103096.42;;;20.81
69552;BMP280;63774;45.292;11.784;2022-11-12T15:47:20;103092.27;;;20.80
69552;BMP280;63774;45.292;11.784;2022-11-12T15:49:54;103087.55;;;20.79
69552;BMP280;63774;45.292;11.784;2022-11-12T15:52:19;103081.27;;;20.79
69552;BMP280;63774;45.292;11.784;2022-11-12T15:54:45;103079.55;;;20.79
69552;BMP280;63774;45.292;11.784;2022-11-12T15:57:15;103077.52;;;20.78
69552;BMP280;63774;45.292;11.784;2022-11-12T15:59:41;103079.41;;;20.76
69552;BMP280;63774;45.292;11.784;2022-11-12T16:02:11;103078.23;;;20.77